Time;durP1;ratioP1;P1;durP2;ratioP2;P2;SDS_P1;SDS_P2;PMS_P1;PMS_P2;Temp;Humidity;BMP_temperature;BMP_pressure;BME280_temperature;BME280_humidity;BME280_pressure;Samples;Min_cycle;Max_cycle;Signal;HPM_P1;HPM_P2
2022/04/13 00:02:11;;;;;;;3.07;2.00;;;13.40;99.90;;;;;;5040048;28;20447;-88
2022/04/13 00:04:58;;;;;;;5.70;2.07;;;13.50;99.90;;;;;;5030324;28;20459;-88
2022/04/13 00:07:44;;;;;;;4.27;2.00;;;13.50;99.90;;;;;;5034042;28;20924;-87
2022/04/13 00:10:30;;;;;;;4.23;1.97;;;13.40;99.90;;;;;;5032936;28;20464;-88
2022/04/13 00:13:17;;;;;;;15.70;2.07;;;13.40;99.90;;;;;;5042611;28;20447;-88
2022/04/13 00:16:03;;;;;;;2.93;1.63;;;13.40;99.90;;;;;;5031444;28;20478;-88
2022/04/13 00:18:49;;;;;;;10.93;1.73;;;13.40;99.90;;;;;;5034273;28;20826;-88
2022/04/13 00:21:34;;;;;;;5.87;2.20;;;13.50;99.90;;;;;;5030891;28;20443;-88
2022/04/13 00:24:20;;;;;;;5.37;3.20;;;13.40;99.90;;;;;;5029860;28;21098;-88
2022/04/13 00:27:05;;;;;;;3.10;2.20;;;13.30;99.90;;;;;;5029507;28;20519;-88
2022/04/13 00:29:52;;;;;;;7.23;1.93;;;13.10;99.90;;;;;;5050205;22;20466;-77
2022/04/13 00:32:38;;;;;;;3.57;1.90;;;13.10;99.90;;;;;;5057112;28;20478;-76
2022/04/13 00:35:23;;;;;;;6.07;1.87;;;13.20;99.90;;;;;;5046904;28;20544;-77
2022/04/13 00:38:09;;;;;;;2.90;1.70;;;13.10;99.90;;;;;;5035070;28;20426;-77
2022/04/13 00:40:55;;;;;;;8.77;2.00;;;13.10;99.90;;;;;;5036367;28;20790;-77
2022/04/13 00:43:42;;;;;;;3.00;1.97;;;13.00;99.90;;;;;;5035719;28;20443;-77
2022/04/13 00:46:30;;;;;;;3.50;1.70;;;13.00;99.90;;;;;;5036233;28;20491;-77
2022/04/13 00:49:16;;;;;;;11.20;2.10;;;12.80;99.90;;;;;;5035275;28;20445;-77
2022/04/13 00:52:04;;;;;;;4.60;2.00;;;12.70;99.90;;;;;;5035878;28;20440;-77
2022/04/13 00:54:50;;;;;;;4.43;1.90;;;12.70;99.90;;;;;;5029626;28;20968;-76
2022/04/13 00:57:37;;;;;;;2.63;1.90;;;12.60;99.90;;;;;;5040620;28;20541;-77
2022/04/13 01:00:23;;;;;;;3.30;1.80;;;12.50;99.90;;;;;;5037993;28;20391;-77
2022/04/13 01:03:10;;;;;;;5.10;2.47;;;12.50;99.90;;;;;;5036412;28;20493;-77
2022/04/13 01:05:56;;;;;;;3.60;1.90;;;12.40;99.90;;;;;;5033681;28;20513;-77
2022/04/13 01:11:09;;;;;;;7.23;2.30;;;12.30;99.90;;;;;;5028533;22;20467;-84
2022/04/13 01:13:56;;;;;;;4.13;2.13;;;12.30;99.90;;;;;;5020243;28;20470;-84
2022/04/13 01:16:42;;;;;;;2.60;1.63;;;12.30;99.90;;;;;;5017222;28;20469;-83
2022/04/13 01:19:29;;;;;;;3.27;2.10;;;12.30;99.90;;;;;;5018908;28;20444;-84
2022/04/13 01:22:19;;;;;;;3.50;2.37;;;12.20;99.90;;;;;;5012982;28;20448;-84
2022/04/13 01:25:05;;;;;;;4.63;2.07;;;12.30;99.90;;;;;;5010762;28;20567;-83
2022/04/13 01:27:51;;;;;;;5.33;2.57;;;12.30;99.90;;;;;;5012426;28;20783;-83
2022/04/13 01:30:37;;;;;;;3.60;2.20;;;12.30;99.90;;;;;;5010560;28;20473;-83
2022/04/13 01:33:24;;;;;;;3.10;2.20;;;12.30;99.90;;;;;;5017491;28;20464;-83
2022/04/13 01:36:09;;;;;;;3.47;2.10;;;12.40;99.90;;;;;;5001114;28;20510;-84
2022/04/13 01:38:57;;;;;;;6.60;2.80;;;12.30;99.90;;;;;;5008038;28;20456;-84
2022/04/13 01:41:42;;;;;;;3.13;2.20;;;12.30;99.90;;;;;;5025319;28;20456;-84
2022/04/13 01:44:28;;;;;;;3.37;2.20;;;12.20;99.90;;;;;;5007852;28;20517;-84
2022/04/13 01:47:13;;;;;;;3.57;2.00;;;12.30;99.90;;;;;;5016922;28;20552;-83
2022/04/13 01:49:59;;;;;;;3.37;2.17;;;12.30;99.90;;;;;;5011129;28;20949;-84
2022/04/13 01:52:46;;;;;;;3.33;2.07;;;12.20;99.90;;;;;;5007225;28;20587;-83
2022/04/13 01:55:32;;;;;;;7.57;2.37;;;12.20;99.90;;;;;;5013513;28;20457;-83
2022/04/13 01:58:18;;;;;;;3.27;2.10;;;12.20;99.90;;;;;;5008115;28;20445;-84
2022/04/13 02:01:04;;;;;;;3.90;2.40;;;12.10;99.90;;;;;;5013023;28;20438;-84
2022/04/13 02:03:50;;;;;;;7.37;1.90;;;12.10;99.90;;;;;;5007159;28;20421;-83
2022/04/13 02:06:35;;;;;;;6.83;2.53;;;12.10;99.90;;;;;;5015190;28;20447;-84
2022/04/13 02:09:21;;;;;;;4.97;2.63;;;12.00;99.90;;;;;;5017580;28;20416;-84
2022/04/13 02:12:09;;;;;;;5.90;2.60;;;12.00;99.90;;;;;;5005980;28;20499;-84
2022/04/13 02:14:55;;;;;;;6.60;2.37;;;12.10;99.90;;;;;;5005782;28;20973;-83
2022/04/13 02:17:40;;;;;;;5.23;2.67;;;12.20;99.90;;;;;;5018197;28;20410;-83
2022/04/13 02:20:26;;;;;;;2.80;2.17;;;12.20;99.90;;;;;;5009547;28;20578;-83
2022/04/13 02:23:12;;;;;;;4.57;2.30;;;12.20;99.90;;;;;;5017864;28;20964;-84
2022/04/13 02:25:57;;;;;;;7.10;2.10;;;12.30;99.90;;;;;;5009595;28;20913;-85
2022/04/13 02:28:44;;;;;;;5.13;2.40;;;12.30;99.90;;;;;;5017741;28;20415;-84
2022/04/13 02:31:30;;;;;;;5.13;2.70;;;12.10;99.90;;;;;;5012061;28;20509;-84
2022/04/13 02:34:17;;;;;;;3.27;2.10;;;12.00;99.90;;;;;;5008539;28;20502;-85
2022/04/13 02:37:03;;;;;;;6.10;2.93;;;12.10;99.90;;;;;;5014577;28;20414;-83
2022/04/13 02:39:49;;;;;;;5.10;2.87;;;12.20;99.90;;;;;;5013349;28;20483;-84
2022/04/13 02:42:36;;;;;;;8.57;2.57;;;12.20;99.90;;;;;;5013673;28;20669;-83
2022/04/13 02:45:23;;;;;;;6.60;2.53;;;12.10;99.90;;;;;;5008918;28;20402;-83
2022/04/13 02:48:09;;;;;;;3.70;2.13;;;12.20;99.90;;;;;;5009691;28;20461;-85
2022/04/13 02:50:56;;;;;;;3.93;2.20;;;12.10;99.90;;;;;;5007505;28;20542;-84
2022/04/13 02:53:42;;;;;;;2.50;1.90;;;12.10;99.90;;;;;;5010200;28;20450;-84
2022/04/13 02:56:27;;;;;;;4.00;2.50;;;12.10;99.90;;;;;;5012970;28;20807;-84
2022/04/13 02:59:13;;;;;;;6.33;2.10;;;12.10;99.90;;;;;;5013184;28;20561;-84
2022/04/13 03:02:00;;;;;;;4.97;2.57;;;12.10;99.90;;;;;;5010771;28;20445;-84
2022/04/13 03:04:47;;;;;;;5.17;2.97;;;12.00;99.90;;;;;;5014921;28;20566;-84
2022/04/13 03:07:33;;;;;;;3.90;2.83;;;11.90;99.90;;;;;;5013117;28;20484;-84
2022/04/13 03:10:19;;;;;;;4.90;2.37;;;11.90;99.90;;;;;;5016836;28;20453;-84
2022/04/13 03:13:05;;;;;;;4.10;2.13;;;11.90;99.90;;;;;;5007726;28;20459;-84
2022/04/13 03:15:50;;;;;;;3.73;2.30;;;11.90;99.90;;;;;;5010221;28;20419;-84
2022/04/13 03:18:37;;;;;;;8.10;2.60;;;11.80;99.90;;;;;;5020161;28;20447;-84
2022/04/13 03:21:24;;;;;;;5.60;2.63;;;11.70;99.90;;;;;;5023010;28;20494;-86
2022/04/13 03:24:10;;;;;;;4.17;2.07;;;11.80;99.90;;;;;;5009084;28;20972;-85
2022/04/13 03:26:57;;;;;;;4.03;2.60;;;11.60;99.90;;;;;;5018916;28;20449;-85
2022/04/13 03:29:42;;;;;;;5.03;2.67;;;11.60;99.90;;;;;;5016582;28;20571;-83
2022/04/13 03:32:28;;;;;;;8.00;2.63;;;11.70;99.90;;;;;;5020454;28;20544;-84
2022/04/13 03:35:15;;;;;;;7.23;2.50;;;11.70;99.90;;;;;;5015717;28;20852;-84
2022/04/13 03:38:01;;;;;;;4.70;2.77;;;11.70;99.90;;;;;;5018150;28;20459;-84
2022/04/13 03:40:47;;;;;;;4.40;2.43;;;11.70;99.90;;;;;;5018831;28;20513;-83
2022/04/13 03:43:32;;;;;;;4.27;2.30;;;11.50;99.90;;;;;;5011002;28;20423;-84
2022/04/13 03:46:18;;;;;;;4.20;2.20;;;11.50;99.90;;;;;;5017912;28;20407;-85
2022/04/13 03:49:04;;;;;;;4.80;2.63;;;11.50;99.90;;;;;;5008715;28;20460;-84
2022/04/13 03:51:50;;;;;;;4.00;2.20;;;11.30;99.90;;;;;;5013396;28;20436;-84
2022/04/13 03:54:36;;;;;;;11.83;2.77;;;11.30;99.90;;;;;;5012874;28;20456;-84
2022/04/13 03:57:22;;;;;;;13.27;4.57;;;11.20;99.90;;;;;;5015995;28;20427;-84
2022/04/13 04:00:09;;;;;;;4.73;2.70;;;11.10;99.90;;;;;;5013018;28;20465;-84
2022/04/13 04:02:55;;;;;;;6.20;2.20;;;11.20;99.90;;;;;;5011559;28;20490;-84
2022/04/13 04:05:41;;;;;;;4.60;3.13;;;11.20;99.90;;;;;;5016547;28;20597;-84
2022/04/13 04:08:28;;;;;;;2.83;2.37;;;11.20;99.90;;;;;;5019147;28;20487;-83
2022/04/13 04:11:14;;;;;;;5.03;2.87;;;11.20;99.90;;;;;;5011464;28;20449;-82
2022/04/13 04:13:59;;;;;;;4.97;2.83;;;11.10;99.90;;;;;;5016924;28;20963;-84
2022/04/13 04:16:45;;;;;;;5.30;2.63;;;11.00;99.90;;;;;;5012904;28;20418;-84
2022/04/13 04:19:31;;;;;;;5.20;2.60;;;11.00;99.90;;;;;;5015058;28;20867;-84
2022/04/13 04:22:16;;;;;;;3.90;2.63;;;11.00;99.90;;;;;;5008126;28;20559;-84
2022/04/13 04:25:04;;;;;;;5.87;2.60;;;10.90;99.90;;;;;;5012127;28;20455;-83
2022/04/13 04:27:50;;;;;;;3.47;2.60;;;10.80;99.90;;;;;;5016632;28;20470;-84
2022/04/13 04:30:35;;;;;;;5.20;2.63;;;10.80;99.90;;;;;;5016570;28;20446;-83
2022/04/13 04:33:23;;;;;;;4.60;3.00;;;10.80;99.90;;;;;;5010951;28;20539;-84
2022/04/13 04:36:10;;;;;;;3.70;2.77;;;10.80;99.90;;;;;;5018641;28;20970;-83
2022/04/13 04:38:56;;;;;;;3.43;2.40;;;10.80;99.90;;;;;;5010405;28;20631;-84
2022/04/13 04:41:43;;;;;;;6.47;2.60;;;10.70;99.90;;;;;;5010181;28;20550;-83
2022/04/13 04:44:29;;;;;;;5.00;2.37;;;10.70;99.90;;;;;;5011873;28;20495;-83
2022/04/13 04:47:14;;;;;;;4.47;3.07;;;10.70;99.90;;;;;;5011773;28;20445;-83
2022/04/13 04:50:00;;;;;;;11.40;6.20;;;10.80;99.90;;;;;;5018947;28;20499;-83
2022/04/13 04:52:47;;;;;;;4.07;3.23;;;11.00;99.90;;;;;;5009723;28;20474;-84
2022/04/13 04:55:33;;;;;;;3.40;2.70;;;10.90;99.90;;;;;;5011704;28;20471;-83
2022/04/13 04:58:20;;;;;;;3.90;2.70;;;10.90;99.90;;;;;;5010668;28;20448;-82
2022/04/13 05:01:06;;;;;;;4.10;2.73;;;10.90;99.90;;;;;;5010630;28;20878;-83
2022/04/13 05:03:52;;;;;;;3.97;3.00;;;11.00;99.90;;;;;;5014900;28;20450;-83
2022/04/13 05:06:38;;;;;;;4.83;2.50;;;10.90;99.90;;;;;;5016252;28;20414;-84
2022/04/13 05:09:25;;;;;;;5.97;2.57;;;10.80;99.90;;;;;;5012254;28;20430;-83
2022/04/13 05:12:11;;;;;;;3.13;2.70;;;10.70;99.90;;;;;;5009186;28;20430;-83
2022/04/13 05:14:58;;;;;;;5.10;3.20;;;10.60;99.90;;;;;;5010435;28;20481;-83
2022/04/13 05:17:44;;;;;;;7.60;2.83;;;10.70;99.90;;;;;;5022154;28;20442;-83
2022/04/13 05:20:30;;;;;;;3.20;2.90;;;10.70;99.90;;;;;;5014500;28;20451;-83
2022/04/13 05:23:16;;;;;;;9.47;2.70;;;10.70;99.90;;;;;;5011325;28;20604;-82
2022/04/13 05:26:02;;;;;;;3.83;3.03;;;10.70;99.90;;;;;;5019014;28;20446;-84
2022/04/13 05:28:48;;;;;;;4.03;3.00;;;10.80;99.90;;;;;;5012207;28;20489;-83
2022/04/13 05:31:35;;;;;;;5.93;2.57;;;10.90;99.90;;;;;;5013603;28;20754;-84
2022/04/13 05:34:21;;;;;;;8.63;2.80;;;11.00;99.90;;;;;;5007740;28;21017;-84
2022/04/13 05:37:07;;;;;;;8.30;3.43;;;11.10;99.90;;;;;;5019020;28;20459;-84
2022/04/13 05:39:52;;;;;;;6.37;3.70;;;11.20;99.90;;;;;;5013643;28;20457;-83
2022/04/13 05:42:38;;;;;;;6.53;3.57;;;11.30;99.90;;;;;;5009294;28;21062;-84
2022/04/13 05:45:24;;;;;;;3.77;2.90;;;11.40;99.90;;;;;;5014827;28;20403;-84
2022/04/13 05:48:11;;;;;;;6.70;3.00;;;11.20;99.90;;;;;;5009178;28;20857;-84
2022/04/13 05:50:59;;;;;;;5.00;2.50;;;11.20;99.90;;;;;;5007358;28;20534;-83
2022/04/13 05:53:45;;;;;;;8.50;3.47;;;11.30;99.90;;;;;;5014569;28;20470;-85
2022/04/13 05:56:30;;;;;;;4.07;3.20;;;11.30;99.90;;;;;;5012451;28;20411;-83
2022/04/13 05:59:16;;;;;;;3.73;2.97;;;11.40;99.90;;;;;;5012167;28;20440;-84
2022/04/13 06:02:02;;;;;;;4.97;3.10;;;11.50;99.90;;;;;;5009817;28;20451;-84
2022/04/13 06:04:49;;;;;;;7.60;3.60;;;11.70;99.90;;;;;;5015851;28;20438;-83
2022/04/13 06:07:35;;;;;;;6.93;3.60;;;11.80;99.90;;;;;;5013498;28;20451;-83
2022/04/13 06:10:20;;;;;;;7.17;3.80;;;11.90;99.90;;;;;;5012586;28;20435;-83
2022/04/13 06:13:07;;;;;;;6.50;2.83;;;12.00;99.90;;;;;;5008489;28;20952;-83
2022/04/13 06:15:52;;;;;;;4.93;2.90;;;12.00;99.90;;;;;;5014758;28;20414;-83
2022/04/13 06:18:38;;;;;;;4.80;2.57;;;12.00;99.90;;;;;;5012941;28;20414;-84
2022/04/13 06:21:25;;;;;;;4.43;3.20;;;12.10;99.90;;;;;;5009671;28;20475;-84
2022/04/13 06:24:11;;;;;;;6.53;3.37;;;12.30;99.90;;;;;;5012701;28;20444;-85
2022/04/13 06:26:57;;;;;;;5.60;3.37;;;12.30;99.90;;;;;;5013921;28;20406;-85
2022/04/13 06:32:18;;;;;;;4.80;3.40;;;12.60;99.90;;;;;;5016193;28;20454;-70
2022/04/13 06:35:05;;;;;;;10.50;3.50;;;12.70;99.90;;;;;;5031418;28;20420;-71
2022/04/13 06:37:52;;;;;;;4.63;3.47;;;12.80;99.90;;;;;;5021720;28;20399;-70
2022/04/13 06:40:39;;;;;;;6.67;3.40;;;12.90;99.90;;;;;;5031573;28;20826;-71
2022/04/13 06:43:24;;;;;;;5.07;3.23;;;13.00;99.90;;;;;;5019406;28;20404;-70
2022/04/13 06:46:10;;;;;;;4.20;3.10;;;13.00;99.90;;;;;;5035038;28;20488;-71
2022/04/13 06:48:56;;;;;;;7.17;4.30;;;13.20;99.90;;;;;;5029370;28;20463;-70
2022/04/13 06:51:42;;;;;;;12.80;5.10;;;13.30;99.90;;;;;;5028944;28;21066;-71
2022/04/13 06:54:29;;;;;;;8.30;4.63;;;13.30;99.90;;;;;;5037609;28;20447;-71
2022/04/13 06:57:15;;;;;;;9.23;5.00;;;13.40;99.90;;;;;;5030227;28;20444;-71
2022/04/13 07:00:01;;;;;;;16.30;5.47;;;13.50;99.90;;;;;;5025539;28;20941;-71
2022/04/13 07:02:47;;;;;;;7.70;5.27;;;13.70;99.90;;;;;;5034636;28;20524;-71
2022/04/13 07:05:33;;;;;;;5.80;4.37;;;13.80;99.90;;;;;;5028199;28;20424;-71
2022/04/13 07:08:18;;;;;;;6.63;4.73;;;13.90;99.90;;;;;;5033993;28;20466;-71
2022/04/13 07:11:06;;;;;;;14.17;5.13;;;14.10;99.90;;;;;;5025112;28;20457;-72
2022/04/13 07:13:51;;;;;;;13.60;5.97;;;14.20;99.90;;;;;;5025895;28;20812;-71
2022/04/13 07:16:37;;;;;;;7.47;4.13;;;14.40;99.90;;;;;;5033585;28;20785;-71
2022/04/13 07:19:23;;;;;;;6.47;4.60;;;14.50;99.90;;;;;;5020459;28;20430;-71
2022/04/13 07:22:08;;;;;;;16.83;4.43;;;14.60;99.90;;;;;;5030264;28;20952;-71
2022/04/13 07:24:54;;;;;;;6.50;4.00;;;14.70;99.90;;;;;;5024670;28;20563;-72
2022/04/13 07:27:41;;;;;;;5.93;3.60;;;14.80;99.90;;;;;;5034854;28;20440;-72
2022/04/13 07:30:27;;;;;;;5.20;3.37;;;14.90;99.90;;;;;;5029530;28;20456;-72
2022/04/13 07:33:13;;;;;;;4.90;3.40;;;15.00;99.90;;;;;;5030677;28;20581;-71
2022/04/13 07:35:59;;;;;;;6.20;3.03;;;15.10;99.90;;;;;;5024375;28;20536;-71
2022/04/13 07:38:44;;;;;;;10.53;3.80;;;15.20;99.90;;;;;;5021033;28;20396;-71
2022/04/13 07:41:30;;;;;;;4.27;2.97;;;15.20;99.90;;;;;;5022864;28;20444;-71
2022/04/13 07:44:18;;;;;;;4.00;3.00;;;15.40;99.90;;;;;;5023096;28;20941;-72
2022/04/13 07:47:04;;;;;;;4.37;3.30;;;15.50;99.90;;;;;;5024536;28;20980;-71
2022/04/13 07:49:50;;;;;;;6.70;3.50;;;15.60;99.90;;;;;;5026548;28;20479;-71
2022/04/13 07:52:36;;;;;;;8.30;3.57;;;15.70;99.90;;;;;;5029355;28;20451;-71
2022/04/13 07:55:22;;;;;;;5.90;3.80;;;15.80;99.90;;;;;;5033131;28;21317;-71
2022/04/13 07:58:08;;;;;;;9.53;3.83;;;15.90;99.90;;;;;;5028622;28;20417;-71
2022/04/13 08:00:55;;;;;;;9.30;2.77;;;16.00;99.90;;;;;;5017965;28;20477;-72
2022/04/13 08:03:40;;;;;;;5.73;3.37;;;16.10;99.40;;;;;;5036563;28;20777;-70
2022/04/13 08:06:26;;;;;;;5.60;3.67;;;16.10;98.70;;;;;;5035101;28;20421;-70
2022/04/13 08:09:11;;;;;;;6.63;3.53;;;16.30;98.70;;;;;;5031285;28;20450;-71
2022/04/13 08:11:57;;;;;;;7.27;3.40;;;16.30;99.10;;;;;;5024495;28;20469;-71
2022/04/13 08:14:45;;;;;;;17.30;4.93;;;16.40;98.60;;;;;;5021195;28;20421;-71
2022/04/13 08:17:32;;;;;;;6.43;3.70;;;16.50;97.50;;;;;;5029220;28;20445;-71
2022/04/13 08:20:18;;;;;;;5.43;2.87;;;16.60;96.20;;;;;;5028061;28;20505;-71
2022/04/13 08:23:03;;;;;;;8.60;3.17;;;16.70;94.40;;;;;;5021196;28;20434;-71
2022/04/13 08:25:49;;;;;;;4.00;2.73;;;16.80;93.20;;;;;;5028986;28;20492;-71
2022/04/13 08:28:34;;;;;;;10.20;3.40;;;16.80;92.10;;;;;;5020120;28;20968;-72
2022/04/13 08:31:20;;;;;;;3.77;2.60;;;17.00;92.10;;;;;;5036132;28;20445;-71
2022/04/13 08:34:07;;;;;;;3.43;2.50;;;17.10;92.60;;;;;;5023023;28;20998;-71
2022/04/13 08:36:53;;;;;;;4.53;2.43;;;17.20;91.80;;;;;;5032345;28;20543;-71
2022/04/13 08:39:39;;;;;;;6.20;3.10;;;17.20;81.60;;;;;;5035500;22;21144;-77
2022/04/13 08:42:32;;;;;;;5.40;3.27;;;17.30;74.60;;;;;;5034079;28;20491;-76
2022/04/13 08:45:22;;;;;;;6.03;2.77;;;17.30;76.50;;;;;;5028617;28;20459;-77
2022/04/13 08:48:12;;;;;;;8.03;2.47;;;17.50;70.90;;;;;;5026299;28;20444;-77
2022/04/13 08:51:02;;;;;;;6.40;2.83;;;17.60;71.70;;;;;;5029654;28;20532;-77
2022/04/13 08:53:51;;;;;;;5.07;2.67;;;17.70;71.80;;;;;;5025112;28;20445;-74
2022/04/13 08:56:40;;;;;;;5.43;2.43;;;17.80;63.50;;;;;;5019832;28;20424;-75
2022/04/13 08:59:32;;;;;;;7.90;2.50;;;18.00;65.30;;;;;;5026458;28;20483;-74
2022/04/13 09:02:30;;;;;;;4.67;2.73;;;18.20;61.70;;;;;;5028585;28;20776;-72
2022/04/13 09:05:18;;;;;;;7.97;2.60;;;18.30;60.40;;;;;;5031284;28;20425;-73
2022/04/13 09:08:09;;;;;;;12.73;2.60;;;18.30;57.90;;;;;;5024296;28;20470;-75
2022/04/13 09:10:55;;;;;;;6.93;2.70;;;18.50;58.90;;;;;;5028394;28;20509;-75
2022/04/13 09:13:41;;;;;;;9.17;3.03;;;18.60;56.80;;;;;;5029920;28;20495;-75
2022/04/13 09:16:27;;;;;;;5.27;2.20;;;18.60;51.80;;;;;;5028484;28;20817;-75
2022/04/13 09:19:14;;;;;;;5.13;2.63;;;18.70;56.10;;;;;;5031013;28;20476;-74
2022/04/13 09:22:00;;;;;;;5.60;2.80;;;18.80;55.70;;;;;;5027678;28;20443;-75
2022/04/13 09:24:48;;;;;;;4.50;2.60;;;19.00;57.40;;;;;;5028517;28;20458;-74
2022/04/13 09:27:36;;;;;;;4.40;2.70;;;19.00;55.40;;;;;;5028108;28;20445;-75
2022/04/13 09:30:22;;;;;;;7.10;3.40;;;19.10;54.10;;;;;;5026649;28;20491;-75
2022/04/13 09:33:08;;;;;;;8.00;3.10;;;19.20;54.80;;;;;;5030003;28;20528;-75
2022/04/13 09:35:54;;;;;;;5.47;2.57;;;19.30;54.60;;;;;;5025881;28;20787;-75
2022/04/13 09:38:40;;;;;;;8.30;3.23;;;19.40;53.50;;;;;;5025767;28;20527;-75
2022/04/13 09:41:35;;;;;;;6.43;3.10;;;19.40;53.50;;;;;;5028223;28;20490;-74
2022/04/13 09:44:21;;;;;;;6.53;3.47;;;19.50;54.30;;;;;;5023923;28;20957;-74
2022/04/13 09:47:07;;;;;;;5.90;2.40;;;19.50;52.80;;;;;;5028566;28;20444;-74
2022/04/13 09:49:53;;;;;;;6.70;3.03;;;19.60;54.70;;;;;;5028434;28;20475;-75
2022/04/13 09:52:40;;;;;;;6.00;3.00;;;19.70;53.00;;;;;;5029756;28;20447;-75
2022/04/13 09:55:27;;;;;;;9.23;2.77;;;19.70;53.00;;;;;;5028310;28;20433;-75
2022/04/13 09:58:14;;;;;;;8.27;2.73;;;19.80;54.20;;;;;;5024995;28;20464;-75
2022/04/13 10:01:02;;;;;;;5.47;2.60;;;19.90;53.20;;;;;;5029444;28;20448;-74
2022/04/13 10:03:55;;;;;;;3.80;2.40;;;20.10;52.80;;;;;;5030721;28;20912;-74
2022/04/13 10:06:40;;;;;;;5.37;2.57;;;20.20;53.70;;;;;;5029176;28;20444;-75
2022/04/13 10:09:28;;;;;;;5.63;2.50;;;20.30;53.60;;;;;;5024162;28;20442;-74
2022/04/13 10:12:13;;;;;;;5.90;2.83;;;20.50;51.70;;;;;;5028410;28;20444;-74
2022/04/13 10:15:09;;;;;;;7.00;2.77;;;20.60;52.80;;;;;;5028979;28;20460;-74
2022/04/13 10:17:59;;;;;;;5.07;2.90;;;20.80;52.70;;;;;;5025847;28;20589;-74
2022/04/13 10:20:46;;;;;;;6.97;2.70;;;20.90;53.20;;;;;;5030712;28;20568;-75
2022/04/13 10:23:41;;;;;;;4.30;2.20;;;21.00;49.80;;;;;;5036119;28;21049;-74
2022/04/13 10:26:27;;;;;;;7.47;3.03;;;21.10;49.10;;;;;;5029142;28;20452;-74
2022/04/13 10:29:17;;;;;;;6.30;2.20;;;21.20;48.00;;;;;;5031540;28;20479;-74
2022/04/13 10:32:10;;;;;;;8.47;2.40;;;21.30;45.70;;;;;;5035818;28;20447;-75
2022/04/13 10:34:56;;;;;;;8.90;2.50;;;21.30;44.30;;;;;;5034028;28;20399;-74
2022/04/13 10:37:43;;;;;;;4.67;2.27;;;21.40;43.90;;;;;;5031568;28;20454;-74
2022/04/13 10:40:31;;;;;;;3.67;2.20;;;21.50;41.20;;;;;;5033978;28;20459;-74
2022/04/13 10:43:18;;;;;;;5.23;2.50;;;21.60;41.30;;;;;;5030875;28;20441;-76
2022/04/13 10:46:04;;;;;;;4.33;2.50;;;21.70;42.40;;;;;;5031364;28;20510;-76
2022/04/13 10:48:55;;;;;;;5.17;2.50;;;21.70;45.20;;;;;;5032039;28;20449;-77
2022/04/13 10:51:41;;;;;;;4.60;2.33;;;21.90;45.20;;;;;;5031172;28;20491;-75
2022/04/13 10:54:32;;;;;;;5.90;2.40;;;21.90;47.20;;;;;;5032893;28;20483;-76
2022/04/13 10:57:19;;;;;;;5.50;1.90;;;22.10;43.60;;;;;;5028259;28;20451;-75
2022/04/13 11:00:07;;;;;;;7.60;2.13;;;22.20;46.80;;;;;;5031214;28;20472;-76
2022/04/13 11:02:55;;;;;;;12.00;2.57;;;22.40;43.70;;;;;;5030870;28;20456;-75
2022/04/13 11:05:42;;;;;;;7.43;3.17;;;22.50;41.20;;;;;;5034080;28;20501;-76
2022/04/13 11:08:35;;;;;;;3.10;1.80;;;22.70;42.40;;;;;;5027445;28;20451;-76
2022/04/13 11:11:23;;;;;;;7.43;2.33;;;22.80;44.90;;;;;;5030424;28;20461;-76
2022/04/13 11:14:19;;;;;;;4.53;2.00;;;22.90;42.70;;;;;;5038044;28;20464;-76
2022/04/13 11:17:27;;;;;;;5.17;2.43;;;23.00;42.80;;;;;;5031411;28;20473;-76
2022/04/13 11:20:18;;;;;;;9.43;2.10;;;23.10;43.60;;;;;;5028177;28;20812;-74
2022/04/13 11:23:15;;;;;;;7.03;1.83;;;23.20;40.80;;;;;;5032856;28;20807;-75
2022/04/13 11:26:02;;;;;;;4.80;2.27;;;23.30;37.80;;;;;;5020828;28;20440;-74
2022/04/13 11:29:07;;;;;;;4.00;2.00;;;23.20;37.20;;;;;;5023205;28;20436;-74
2022/04/13 11:32:13;;;;;;;8.77;2.10;;;23.30;38.50;;;;;;5029178;28;20452;-74
2022/04/13 11:35:00;;;;;;;6.90;1.83;;;23.40;38.50;;;;;;5027778;28;20961;-75
2022/04/13 11:37:46;;;;;;;6.00;2.20;;;23.40;38.60;;;;;;5025569;28;20522;-74
2022/04/13 11:40:34;;;;;;;10.70;3.83;;;23.60;37.30;;;;;;5029934;28;20472;-74
2022/04/13 11:43:23;;;;;;;10.47;2.50;;;23.70;34.90;;;;;;5029514;28;20426;-74
2022/04/13 11:46:29;;;;;;;5.40;1.93;;;23.60;34.30;;;;;;5029129;28;20797;-76
2022/04/13 11:49:15;;;;;;;5.57;2.60;;;23.70;33.90;;;;;;5029703;28;20471;-76
2022/04/13 11:52:42;;;;;;;8.80;1.73;;;23.80;34.30;;;;;;5030311;28;20444;-76
2022/04/13 11:55:31;;;;;;;11.17;2.70;;;23.90;33.90;;;;;;5030584;28;20548;-76
2022/04/13 11:58:22;;;;;;;9.07;3.77;;;23.90;33.60;;;;;;5027985;28;20961;-76
2022/04/13 12:01:12;;;;;;;5.77;2.30;;;24.00;35.20;;;;;;5031062;28;20518;-76
2022/04/13 12:03:58;;;;;;;5.50;1.90;;;24.10;33.70;;;;;;5027989;28;20945;-76
2022/04/13 12:06:46;;;;;;;5.80;2.23;;;24.20;32.80;;;;;;5027568;28;20957;-76
2022/04/13 12:09:32;;;;;;;10.63;2.60;;;24.20;33.10;;;;;;5033363;28;20855;-76
2022/04/13 12:12:18;;;;;;;3.97;1.70;;;24.30;33.40;;;;;;5032118;28;20973;-76
2022/04/13 12:15:06;;;;;;;13.27;4.10;;;24.40;32.80;;;;;;5026050;28;20575;-75
2022/04/13 12:17:54;;;;;;;14.40;3.47;;;24.50;34.40;;;;;;5028230;28;20448;-76
2022/04/13 12:20:40;;;;;;;4.40;1.87;;;24.40;31.50;;;;;;5032283;28;20440;-76
2022/04/13 12:23:28;;;;;;;7.53;2.70;;;24.60;33.20;;;;;;5030841;28;20535;-76
2022/04/13 12:26:13;;;;;;;9.80;2.43;;;24.70;33.80;;;;;;5028304;28;20511;-75
2022/04/13 12:28:59;;;;;;;4.17;2.40;;;24.70;33.20;;;;;;5030823;28;20548;-76
2022/04/13 12:31:48;;;;;;;11.13;4.73;;;24.80;33.60;;;;;;5030184;28;20439;-76
2022/04/13 12:34:34;;;;;;;10.77;3.87;;;24.70;38.30;;;;;;5032052;28;20425;-76
2022/04/13 12:37:20;;;;;;;9.07;4.47;;;24.70;40.00;;;;;;5027177;28;20452;-75
2022/04/13 12:40:19;;;;;;;7.07;3.50;;;24.70;41.10;;;;;;5031553;28;20472;-76
2022/04/13 12:43:10;;;;;;;6.67;3.97;;;24.70;40.10;;;;;;5026605;28;20491;-76
2022/04/13 12:45:56;;;;;;;6.90;3.67;;;24.60;39.10;;;;;;5021941;28;20480;-75
2022/04/13 12:48:45;;;;;;;21.50;4.20;;;24.60;39.30;;;;;;5027064;28;20984;-75
2022/04/13 12:51:32;;;;;;;6.80;4.33;;;24.50;39.90;;;;;;5030029;28;20441;-76
2022/04/13 12:54:19;;;;;;;9.50;4.27;;;24.60;40.40;;;;;;5029204;28;20468;-76
2022/04/13 12:57:05;;;;;;;5.80;3.27;;;24.80;40.10;;;;;;5022267;28;20962;-75
2022/04/13 12:59:50;;;;;;;5.80;3.30;;;24.70;38.40;;;;;;5027926;28;20464;-75
2022/04/13 13:02:37;;;;;;;6.17;3.10;;;24.70;37.90;;;;;;5032233;28;20416;-76
2022/04/13 13:05:25;;;;;;;6.43;3.23;;;24.90;38.40;;;;;;5025546;28;20465;-75
2022/04/13 13:08:11;;;;;;;7.73;3.13;;;24.70;38.10;;;;;;5027950;28;20429;-76
2022/04/13 13:10:59;;;;;;;8.93;3.57;;;24.60;38.60;;;;;;5028669;28;20838;-76
2022/04/13 13:13:45;;;;;;;4.97;2.83;;;24.80;38.80;;;;;;5030072;28;20439;-76
2022/04/13 13:16:36;;;;;;;5.30;2.97;;;25.20;40.20;;;;;;5027283;28;20457;-77
2022/04/13 13:19:24;;;;;;;9.87;3.20;;;25.40;37.50;;;;;;5029582;28;20551;-76
2022/04/13 13:22:12;;;;;;;5.30;3.73;;;25.60;37.90;;;;;;5030337;28;20453;-76
2022/04/13 13:25:01;;;;;;;7.90;3.20;;;25.50;35.90;;;;;;5029069;28;20510;-76
2022/04/13 13:27:50;;;;;;;6.50;2.80;;;25.20;37.10;;;;;;5028047;28;20452;-76
2022/04/13 13:30:40;;;;;;;13.60;3.37;;;25.20;40.00;;;;;;5028516;28;20456;-76
2022/04/13 13:33:26;;;;;;;11.50;2.90;;;25.20;38.70;;;;;;5029527;28;20456;-76
2022/04/13 13:36:15;;;;;;;7.43;4.30;;;25.30;37.70;;;;;;5023488;28;20979;-76
2022/04/13 13:39:03;;;;;;;8.47;3.60;;;25.30;37.90;;;;;;5034138;28;20534;-77
2022/04/13 13:42:03;;;;;;;4.40;3.10;;;25.20;38.30;;;;;;5032133;28;20965;-76
2022/04/13 13:44:48;;;;;;;15.23;3.60;;;25.30;39.30;;;;;;5017817;28;20580;-76
2022/04/13 13:47:34;;;;;;;10.53;4.50;;;25.20;38.80;;;;;;5029305;28;20491;-76
2022/04/13 13:50:20;;;;;;;7.57;3.27;;;25.00;40.00;;;;;;5032127;28;21136;-76
2022/04/13 13:53:07;;;;;;;9.30;3.50;;;25.00;39.50;;;;;;5025405;28;20981;-75
2022/04/13 13:55:54;;;;;;;4.10;3.20;;;25.20;41.10;;;;;;5022740;28;20440;-76
2022/04/13 13:58:40;;;;;;;8.73;3.13;;;25.50;39.80;;;;;;5027316;28;20595;-77
2022/04/13 14:01:26;;;;;;;8.43;2.80;;;25.70;39.20;;;;;;5029616;28;20519;-76
2022/04/13 14:04:11;;;;;;;16.60;2.93;;;25.90;37.20;;;;;;5035605;28;20500;-76
2022/04/13 14:06:57;;;;;;;11.97;2.83;;;26.20;38.00;;;;;;5025027;28;20500;-76
2022/04/13 14:09:44;;;;;;;10.93;3.10;;;26.40;36.50;;;;;;5030026;28;20476;-76
2022/04/13 14:12:31;;;;;;;6.67;2.87;;;26.60;36.60;;;;;;5028868;28;20907;-76
2022/04/13 14:15:16;;;;;;;5.33;2.60;;;26.70;35.10;;;;;;5023254;28;20464;-75
2022/04/13 14:18:02;;;;;;;6.73;2.83;;;26.70;34.80;;;;;;5028191;28;21037;-75
2022/04/13 14:20:48;;;;;;;6.27;3.20;;;26.80;35.20;;;;;;5026615;28;20993;-77
2022/04/13 14:23:34;;;;;;;6.37;2.80;;;26.90;33.80;;;;;;5023199;28;20456;-75
2022/04/13 14:26:20;;;;;;;7.63;2.60;;;26.80;34.40;;;;;;5024323;28;20943;-77
2022/04/13 14:29:07;;;;;;;13.53;2.53;;;26.80;32.80;;;;;;5023984;28;20599;-77
2022/04/13 14:31:53;;;;;;;5.03;2.60;;;26.80;34.10;;;;;;5022050;28;20468;-76
2022/04/13 14:34:38;;;;;;;6.83;3.00;;;26.80;34.00;;;;;;5026375;28;20512;-76